Time;durP1;ratioP1;P1;durP2;ratioP2;P2;SDS_P1;SDS_P2;PMS_P1;PMS_P2;Temp;Humidity;BMP_temperature;BMP_pressure;BME280_temperature;BME280_humidity;BME280_pressure;Samples;Min_cycle;Max_cycle;Signal;HPM_P1;HPM_P2
2021/12/30 00:01:05;;;;;;;569.70;332.23;;;;;;;1.26;72.06;94051.47;1690981;84;21143;-52
2021/12/30 00:03:33;;;;;;;568.50;335.80;;;;;;;1.33;72.42;94056.04;1691080;84;21050;-52
2021/12/30 00:05:59;;;;;;;545.45;313.10;;;;;;;1.45;72.64;94052.20;1696329;84;20965;-54
2021/12/30 00:08:27;;;;;;;548.67;311.45;;;;;;;1.61;72.44;94058.39;1694059;84;21015;-53
2021/12/30 00:10:53;;;;;;;613.03;327.40;;;;;;;1.63;71.92;94062.23;1696970;84;21488;-52
2021/12/30 00:13:24;;;;;;;632.67;334.40;;;;;;;1.57;71.83;94062.52;1699253;83;21161;-51
2021/12/30 00:15:51;;;;;;;577.28;324.02;;;;;;;1.57;71.94;94065.23;1677347;84;21104;-51
2021/12/30 00:18:17;;;;;;;552.70;310.17;;;;;;;1.61;72.03;94060.52;1696755;83;20960;-51
2021/12/30 00:20:44;;;;;;;539.67;303.70;;;;;;;1.67;72.08;94048.64;1700263;83;21054;-52
2021/12/30 00:23:14;;;;;;;560.45;313.23;;;;;;;1.75;71.96;94060.34;1672622;84;20967;-54
2021/12/30 00:25:41;;;;;;;597.70;328.77;;;;;;;1.81;71.76;94066.84;1669460;84;21158;-52
2021/12/30 00:28:22;;;;;;;592.75;324.35;;;;;;;1.86;72.02;94065.02;1696069;84;20995;-52
2021/12/30 00:30:50;;;;;;;579.95;328.60;;;;;;;1.97;71.87;94060.23;1690229;84;21075;-52
2021/12/30 00:33:16;;;;;;;615.90;349.40;;;;;;;1.99;71.65;94063.30;1692827;83;21057;-52
2021/12/30 00:35:43;;;;;;;593.17;328.90;;;;;;;2.05;71.91;94063.00;1697329;84;21532;-52
2021/12/30 00:38:11;;;;;;;560.45;318.65;;;;;;;2.18;71.44;94069.41;1674991;84;21174;-51
2021/12/30 00:40:38;;;;;;;552.62;308.47;;;;;;;2.16;71.09;94066.34;1695141;83;20959;-50
2021/12/30 00:43:05;;;;;;;562.88;316.27;;;;;;;2.14;70.83;94061.92;1667032;84;21071;-52
2021/12/30 00:45:34;;;;;;;537.15;299.80;;;;;;;2.03;70.85;94055.87;1695985;83;21105;-52
2021/12/30 00:48:03;;;;;;;527.85;291.00;;;;;;;1.96;70.99;94056.73;1695829;84;21622;-53
2021/12/30 00:50:32;;;;;;;546.85;306.57;;;;;;;1.89;71.03;94058.78;1688574;84;21868;-51
2021/12/30 00:53:01;;;;;;;596.60;311.60;;;;;;;1.76;71.34;94060.52;1688734;84;20999;-52
2021/12/30 00:55:28;;;;;;;665.42;345.37;;;;;;;1.74;71.68;94065.59;1700394;84;20956;-51
2021/12/30 00:57:54;;;;;;;608.90;324.30;;;;;;;1.70;72.01;94068.91;1688405;83;21070;-51
2021/12/30 01:00:22;;;;;;;618.48;342.77;;;;;;;1.77;72.46;94070.19;1694856;84;21580;-51
2021/12/30 01:02:49;;;;;;;608.20;332.57;;;;;;;1.85;72.37;94068.91;1696857;84;21233;-51
2021/12/30 01:05:16;;;;;;;593.48;326.00;;;;;;;1.94;72.57;94073.25;1657848;84;21086;-51
2021/12/30 01:07:43;;;;;;;622.67;344.95;;;;;;;2.02;71.99;94071.97;1693610;84;21064;-51
2021/12/30 01:10:14;;;;;;;601.27;335.70;;;;;;;2.02;72.14;94070.61;1690943;84;21421;-51
2021/12/30 01:12:40;;;;;;;568.75;325.00;;;;;;;2.12;72.27;94071.06;1700633;84;20952;-51
2021/12/30 01:15:10;;;;;;;576.27;330.35;;;;;;;2.23;71.80;94071.66;1700482;84;21183;-51
2021/12/30 01:17:51;;;;;;;567.30;322.35;;;;;;;2.28;71.55;94086.11;1695819;83;20956;-51
2021/12/30 01:20:11;;;;;;;589.60;334.15;;;;;;;2.26;71.23;94083.04;1698154;84;20995;-52
2021/12/30 01:22:38;;;;;;;591.62;335.82;;;;;;;2.23;71.32;94090.07;1693930;83;21439;-51
2021/12/30 01:25:11;;;;;;;586.45;338.40;;;;;;;2.33;71.53;94089.13;1684326;84;21018;-52
2021/12/30 01:27:40;;;;;;;593.52;336.60;;;;;;;2.49;71.19;94099.38;1706668;83;21427;-52
2021/12/30 01:30:11;;;;;;;603.50;342.68;;;;;;;2.60;70.88;94091.82;1667482;84;21043;-52
2021/12/30 01:32:41;;;;;;;587.30;339.23;;;;;;;2.61;70.50;94090.64;1668007;84;21451;-51
2021/12/30 01:35:10;;;;;;;585.13;344.20;;;;;;;2.56;70.50;94091.89;1695261;83;21519;-52
2021/12/30 01:37:37;;;;;;;597.33;344.35;;;;;;;2.59;70.62;94093.00;1700018;83;21459;-52
2021/12/30 01:40:11;;;;;;;602.23;349.95;;;;;;;2.57;70.31;94100.22;1668948;84;21079;-52
2021/12/30 01:42:37;;;;;;;571.90;328.18;;;;;;;2.54;70.63;94090.77;1701925;84;21498;-52
2021/12/30 01:45:06;;;;;;;586.73;327.50;;;;;;;2.55;70.25;94086.30;1698325;83;21057;-53
2021/12/30 01:47:34;;;;;;;594.10;333.95;;;;;;;2.44;70.10;94091.11;1695814;83;21010;-52
2021/12/30 01:50:00;;;;;;;580.60;320.27;;;;;;;2.39;70.46;94097.58;1669394;84;21011;-53
2021/12/30 01:52:29;;;;;;;570.33;316.70;;;;;;;2.35;70.46;94105.02;1695223;83;21112;-52
2021/12/30 01:54:56;;;;;;;571.63;321.82;;;;;;;2.29;70.48;94106.66;1692100;84;20987;-52
2021/12/30 01:57:22;;;;;;;559.15;315.62;;;;;;;2.20;70.51;94108.53;1667622;83;21054;-52
2021/12/30 01:59:53;;;;;;;549.27;310.68;;;;;;;2.09;70.82;94113.90;1679074;84;21440;-52
2021/12/30 02:02:19;;;;;;;572.37;316.50;;;;;;;2.04;71.17;94112.44;1693958;83;21592;-51
2021/12/30 02:04:47;;;;;;;554.12;308.13;;;;;;;2.03;71.21;94107.41;1692676;84;21100;-53
2021/12/30 02:07:14;;;;;;;552.13;312.27;;;;;;;2.01;71.46;94113.83;1700230;83;21423;-52
2021/12/30 02:09:41;;;;;;;561.62;312.08;;;;;;;2.07;71.92;94114.90;1692481;83;21136;-52
2021/12/30 02:12:09;;;;;;;549.83;305.48;;;;;;;2.14;71.53;94124.31;1675675;84;20967;-52
2021/12/30 02:14:37;;;;;;;532.30;293.67;;;;;;;2.14;71.43;94127.03;1691949;83;21107;-52
2021/12/30 02:17:06;;;;;;;499.55;283.40;;;;;;;2.13;71.39;94129.56;1670678;83;21140;-53
2021/12/30 02:19:34;;;;;;;499.15;284.57;;;;;;;2.07;71.42;94132.53;1697874;83;21089;-51
2021/12/30 02:22:02;;;;;;;565.35;331.93;;;;;;;2.06;71.71;94136.42;1694513;83;21609;-52
2021/12/30 02:24:28;;;;;;;526.00;306.23;;;;;;;2.15;72.10;94129.31;1694453;83;21456;-51
2021/12/30 02:26:59;;;;;;;507.85;293.25;;;;;;;2.30;71.85;94132.63;1697934;84;21059;-51
2021/12/30 02:29:26;;;;;;;563.42;329.80;;;;;;;2.44;71.58;94144.61;1701975;84;21919;-51
2021/12/30 02:31:53;;;;;;;526.87;305.37;;;;;;;2.55;71.30;94137.09;1694146;83;21010;-52
2021/12/30 02:34:24;;;;;;;497.02;281.38;;;;;;;2.64;71.04;94137.32;1693230;84;21067;-52
2021/12/30 02:36:52;;;;;;;508.75;290.23;;;;;;;2.69;70.39;94140.34;1689841;83;20994;-51
2021/12/30 02:39:22;;;;;;;500.53;290.60;;;;;;;2.60;70.55;94136.62;1697000;84;21065;-52
2021/12/30 02:41:50;;;;;;;520.05;297.70;;;;;;;2.61;70.58;94144.94;1695059;83;21185;-52
2021/12/30 02:44:17;;;;;;;508.87;285.90;;;;;;;2.58;70.50;94148.48;1696148;84;21471;-52
2021/12/30 02:46:44;;;;;;;509.00;292.80;;;;;;;2.53;70.62;94158.45;1697164;83;21027;-53
2021/12/30 02:49:10;;;;;;;513.20;290.98;;;;;;;2.46;70.91;94163.39;1700406;83;21038;-52
2021/12/30 02:51:37;;;;;;;506.30;281.25;;;;;;;2.47;71.40;94169.59;1697630;84;20971;-52
2021/12/30 02:54:05;;;;;;;504.40;286.00;;;;;;;2.57;71.46;94165.95;1667931;84;21003;-53
2021/12/30 02:56:35;;;;;;;484.35;276.88;;;;;;;2.67;71.15;94158.25;1698250;83;21085;-52
2021/12/30 02:59:05;;;;;;;468.60;266.05;;;;;;;2.74;71.01;94153.48;1667484;84;21888;-52
2021/12/30 03:01:32;;;;;;;469.55;264.88;;;;;;;2.83;70.44;94165.17;1664805;84;20982;-52
2021/12/30 03:04:07;;;;;;;470.80;263.60;;;;;;;2.76;70.19;94163.91;1700753;83;21455;-52
2021/12/30 03:06:30;;;;;;;459.90;260.90;;;;;;;2.66;70.29;94166.21;1696099;84;21246;-52
2021/12/30 03:08:58;;;;;;;464.55;258.80;;;;;;;2.58;70.31;94167.48;1692925;84;20979;-52
2021/12/30 03:11:25;;;;;;;451.35;253.67;;;;;;;2.53;70.48;94167.95;1695493;83;21049;-52
2021/12/30 03:13:54;;;;;;;467.15;262.10;;;;;;;2.50;70.46;94171.48;1699070;83;21490;-52
2021/12/30 03:16:29;;;;;;;463.40;259.20;;;;;;;2.43;70.53;94172.35;1690979;84;21495;-51
2021/12/30 03:18:57;;;;;;;476.35;266.95;;;;;;;2.39;71.21;94166.21;1694893;84;21155;-52
2021/12/30 03:21:24;;;;;;;485.40;275.80;;;;;;;2.45;71.06;94169.21;1690314;84;21015;-52
2021/12/30 03:23:57;;;;;;;488.52;278.18;;;;;;;2.43;71.13;94171.57;1693586;83;20975;-52
2021/12/30 03:26:23;;;;;;;;;;;;;;;2.45;71.67;94174.06;1695379;84;21082;-52
2021/12/30 03:28:51;;;;;;;431.27;236.62;;;;;;;2.56;71.58;94180.70;1694671;84;20452;-52
2021/12/30 03:31:19;;;;;;;493.52;273.80;;;;;;;2.61;71.43;94183.73;1695673;84;21162;-52
2021/12/30 03:33:46;;;;;;;519.77;294.65;;;;;;;2.57;71.15;94182.23;1690819;84;20999;-53
2021/12/30 03:36:13;;;;;;;545.52;309.10;;;;;;;2.53;71.24;94189.06;1692900;84;21031;-54
2021/12/30 03:38:44;;;;;;;549.62;315.27;;;;;;;2.49;71.47;94191.67;1695280;84;21098;-52
2021/12/30 03:41:15;;;;;;;562.42;321.77;;;;;;;2.50;71.48;94192.59;1690428;84;21457;-52
2021/12/30 03:43:44;;;;;;;518.77;299.00;;;;;;;2.55;71.70;94195.45;1700277;83;21095;-51
2021/12/30 03:46:10;;;;;;;501.80;285.75;;;;;;;2.60;71.45;94198.48;1696402;83;20964;-52
2021/12/30 03:48:43;;;;;;;516.52;292.20;;;;;;;2.69;71.45;94196.61;1660286;84;21013;-53
2021/12/30 03:51:11;;;;;;;505.70;289.15;;;;;;;2.74;70.94;94200.22;1690853;84;21068;-52
2021/12/30 03:53:42;;;;;;;501.77;279.25;;;;;;;2.68;70.85;94200.51;1692594;84;21054;-52
2021/12/30 03:56:12;;;;;;;519.13;294.13;;;;;;;2.65;71.19;94194.55;1696835;83;21141;-52
2021/12/30 03:58:42;;;;;;;475.75;266.75;;;;;;;2.69;71.30;94202.05;1696022;84;20964;-51
2021/12/30 04:01:14;;;;;;;496.22;286.82;;;;;;;2.74;71.30;94204.29;1702003;83;21000;-51
2021/12/30 04:03:41;;;;;;;499.12;290.68;;;;;;;2.79;71.17;94211.97;1694807;83;21229;-53
2021/12/30 04:06:08;;;;;;;469.62;265.62;;;;;;;2.86;71.24;94225.46;1692812;84;21435;-53
2021/12/30 04:08:36;;;;;;;450.70;252.70;;;;;;;2.87;70.68;94229.11;1671156;84;21131;-53
2021/12/30 04:11:03;;;;;;;484.07;275.50;;;;;;;2.80;70.62;94233.87;1678078;84;21027;-51
2021/12/30 04:13:32;;;;;;;464.65;269.95;;;;;;;2.75;71.11;94233.77;1675522;84;20999;-52
2021/12/30 04:15:59;;;;;;;467.12;261.35;;;;;;;2.80;71.02;94228.44;1703912;84;21066;-52
2021/12/30 04:18:26;;;;;;;477.90;271.93;;;;;;;2.78;70.72;94241.66;1698980;83;21074;-52
2021/12/30 04:20:53;;;;;;;473.45;266.40;;;;;;;2.68;70.68;94238.52;1695506;84;21821;-51
2021/12/30 04:23:20;;;;;;;483.83;273.77;;;;;;;2.56;70.88;94230.92;1697563;83;20985;-52
2021/12/30 04:25:47;;;;;;;494.05;275.95;;;;;;;2.51;71.17;94231.38;1698347;84;21000;-52
2021/12/30 04:28:14;;;;;;;473.73;269.40;;;;;;;2.53;71.70;94235.21;1671437;84;21038;-54
2021/12/30 04:30:44;;;;;;;518.50;295.82;;;;;;;2.63;71.72;94240.31;1691139;84;21420;-52
2021/12/30 04:33:11;;;;;;;525.95;301.40;;;;;;;2.68;71.77;94234.45;1695624;83;21835;-52
2021/12/30 04:35:38;;;;;;;511.30;291.27;;;;;;;2.75;71.68;94232.98;1701457;84;20932;-52
2021/12/30 04:38:04;;;;;;;524.15;299.85;;;;;;;2.79;71.58;94236.41;1692413;84;21002;-52
2021/12/30 04:40:31;;;;;;;514.50;292.32;;;;;;;2.78;71.29;94230.22;1695605;83;21241;-52
2021/12/30 04:42:58;;;;;;;527.08;298.35;;;;;;;2.78;71.47;94233.52;1664048;84;20986;-52
2021/12/30 04:45:26;;;;;;;532.58;305.67;;;;;;;2.82;71.71;94239.66;1690402;84;21853;-53
2021/12/30 04:47:53;;;;;;;564.27;318.97;;;;;;;2.92;71.80;94247.68;1692824;84;21074;-52
2021/12/30 04:50:22;;;;;;;555.10;315.75;;;;;;;3.02;71.22;94245.38;1668416;84;21458;-54
2021/12/30 04:52:48;;;;;;;612.23;352.85;;;;;;;2.97;70.68;94246.42;1689239;84;21452;-52
2021/12/30 04:55:15;;;;;;;550.27;312.15;;;;;;;2.88;70.83;94240.75;1663482;84;21035;-52
2021/12/30 04:57:42;;;;;;;537.05;305.02;;;;;;;2.88;71.26;94259.77;1694419;84;21852;-52
2021/12/30 05:00:11;;;;;;;574.95;330.02;;;;;;;2.94;71.24;94258.90;1666332;84;20963;-52
2021/12/30 05:05:24;;;;;;;509.93;286.05;;;;;;;3.02;71.10;94263.64;1690935;84;21007;-51
2021/12/30 05:07:50;;;;;;;511.05;294.67;;;;;;;3.11;70.81;94261.95;1697933;83;20948;-51
2021/12/30 05:10:20;;;;;;;462.62;258.32;;;;;;;3.05;70.54;94274.44;1662760;84;21815;-52
2021/12/30 05:12:49;;;;;;;470.40;268.75;;;;;;;2.99;70.59;94284.81;1696207;83;21478;-52
2021/12/30 05:15:18;;;;;;;485.20;279.20;;;;;;;2.92;70.62;94282.99;1697323;84;21002;-52
2021/12/30 05:17:46;;;;;;;456.13;262.65;;;;;;;2.86;70.69;94287.33;1692359;84;21451;-52
2021/12/30 05:20:13;;;;;;;458.50;259.12;;;;;;;2.86;71.02;94287.33;1696159;84;21059;-51
2021/12/30 05:22:43;;;;;;;454.15;255.62;;;;;;;2.87;70.88;94290.83;1691447;83;21158;-50
2021/12/30 05:25:13;;;;;;;435.43;241.38;;;;;;;2.85;70.83;94294.54;1698617;84;20963;-51
2021/12/30 05:27:40;;;;;;;470.40;265.40;;;;;;;2.84;70.86;94294.36;1701722;83;20972;-55
2021/12/30 05:30:09;;;;;;;451.57;251.58;;;;;;;2.80;71.31;94293.62;1700093;83;21002;-54
2021/12/30 05:32:37;;;;;;;445.77;253.35;;;;;;;2.88;71.59;94292.36;1700088;84;20940;-55
2021/12/30 05:35:06;;;;;;;456.63;260.48;;;;;;;3.00;71.27;94299.94;1695569;84;21491;-54
2021/12/30 05:37:36;;;;;;;439.65;245.35;;;;;;;3.09;71.10;94300.20;1691018;84;21100;-54
2021/12/30 05:40:06;;;;;;;434.60;244.47;;;;;;;3.15;70.79;94310.79;1688584;84;21006;-51
2021/12/30 05:42:33;;;;;;;441.98;249.75;;;;;;;3.20;70.33;94311.70;1689742;84;21043;-49
2021/12/30 05:44:59;;;;;;;407.62;221.22;;;;;;;3.18;70.28;94316.75;1698317;83;20957;-52
2021/12/30 05:47:26;;;;;;;434.20;243.00;;;;;;;3.17;70.19;94317.36;1663314;84;21116;-49
2021/12/30 05:49:53;;;;;;;406.50;223.70;;;;;;;3.08;70.20;94323.88;1685890;83;21098;-50
2021/12/30 05:52:20;;;;;;;441.38;243.15;;;;;;;3.00;70.17;94331.17;1660244;84;20972;-49
2021/12/30 05:54:47;;;;;;;445.10;249.55;;;;;;;2.84;70.44;94331.03;1699227;84;21455;-50
2021/12/30 05:57:17;;;;;;;441.70;251.40;;;;;;;2.77;70.75;94329.17;1699528;84;21199;-49
2021/12/30 05:59:44;;;;;;;437.57;241.08;;;;;;;2.80;71.05;94337.86;1690146;83;21141;-51
2021/12/30 06:02:11;;;;;;;439.13;248.60;;;;;;;2.92;71.20;94334.60;1700029;84;20981;-50
2021/12/30 06:04:44;;;;;;;441.98;255.40;;;;;;;2.98;70.86;94336.25;1694058;84;21515;-51
2021/12/30 06:07:14;;;;;;;428.00;243.85;;;;;;;2.97;70.87;94332.78;1692483;84;21116;-50
2021/12/30 06:09:41;;;;;;;428.82;240.35;;;;;;;2.97;71.00;94335.50;1695856;83;20955;-50
2021/12/30 06:12:09;;;;;;;469.15;266.77;;;;;;;2.94;71.08;94332.24;1691338;84;21157;-50
2021/12/30 06:14:40;;;;;;;454.23;258.55;;;;;;;2.87;71.42;94332.32;1674141;84;21051;-50
2021/12/30 06:17:07;;;;;;;475.60;276.92;;;;;;;2.94;71.75;94332.24;1689418;84;21063;-50
2021/12/30 06:19:34;;;;;;;498.43;287.08;;;;;;;3.01;71.52;94338.93;1672069;84;21055;-50
2021/12/30 06:22:02;;;;;;;478.25;276.85;;;;;;;3.10;71.61;94339.78;1692346;84;21407;-50
2021/12/30 06:24:29;;;;;;;539.30;318.15;;;;;;;3.19;71.05;94338.67;1699561;83;21158;-50
2021/12/30 06:26:56;;;;;;;519.73;294.30;;;;;;;3.19;71.20;94344.11;1695142;83;20985;-50
2021/12/30 06:29:23;;;;;;;476.22;274.02;;;;;;;3.19;70.86;94353.63;1670091;84;21553;-50
2021/12/30 06:31:50;;;;;;;435.20;245.48;;;;;;;3.11;70.89;94350.83;1673364;83;20982;-50
2021/12/30 06:34:16;;;;;;;399.27;224.10;;;;;;;3.05;71.27;94360.63;1698337;84;21011;-50
2021/12/30 06:36:43;;;;;;;393.33;218.25;;;;;;;3.02;71.41;94361.45;1698852;83;21177;-51
2021/12/30 06:39:15;;;;;;;464.35;270.65;;;;;;;3.00;71.53;94371.92;1695089;83;20946;-53
2021/12/30 06:41:42;;;;;;;472.35;267.57;;;;;;;2.97;71.52;94380.90;1696315;83;21099;-50
2021/12/30 06:44:08;;;;;;;511.50;301.32;;;;;;;2.90;71.63;94383.11;1697233;82;21008;-54
2021/12/30 06:46:37;;;;;;;509.93;295.30;;;;;;;2.88;71.66;94394.97;1696632;82;20977;-51
2021/12/30 06:49:09;;;;;;;476.25;276.12;;;;;;;2.82;71.83;94397.19;1672337;83;21258;-51
2021/12/30 06:51:35;;;;;;;483.32;282.65;;;;;;;2.84;72.09;94412.52;1704692;82;21009;-52
2021/12/30 06:54:05;;;;;;;487.98;293.50;;;;;;;2.84;71.94;94410.55;1712189;82;21439;-51
2021/12/30 06:56:33;;;;;;;486.12;288.42;;;;;;;2.82;72.14;94416.19;1686069;82;21052;-50
2021/12/30 06:58:59;;;;;;;482.45;284.20;;;;;;;2.81;72.30;94425.52;1678363;81;20962;-50
2021/12/30 07:01:30;;;;;;;459.48;268.63;;;;;;;2.81;72.25;94419.52;1688740;82;21201;-50
2021/12/30 07:03:57;;;;;;;452.88;261.60;;;;;;;2.83;72.36;94419.88;1710197;82;20938;-51
2021/12/30 07:06:25;;;;;;;465.88;275.73;;;;;;;2.91;72.54;94421.92;1667239;83;20991;-55
2021/12/30 07:08:53;;;;;;;457.27;268.42;;;;;;;2.99;72.51;94418.72;1692331;82;21603;-52
2021/12/30 07:11:20;;;;;;;435.52;252.85;;;;;;;3.14;72.78;94411.94;1694230;83;21667;-51
2021/12/30 07:13:47;;;;;;;445.92;261.62;;;;;;;3.30;72.19;94419.48;1701680;82;21115;-56
2021/12/30 07:16:14;;;;;;;398.62;216.82;;;;;;;3.35;71.83;94425.82;1688878;82;21633;-52
2021/12/30 07:18:41;;;;;;;494.35;293.27;;;;;;;3.32;71.69;94432.08;1680261;82;21506;-52
2021/12/30 07:21:07;;;;;;;480.45;287.12;;;;;;;3.29;72.02;94426.10;1699029;82;21113;-51
2021/12/30 07:23:39;;;;;;;484.20;289.45;;;;;;;3.36;71.89;94427.36;1698379;82;21181;-53
2021/12/30 07:26:08;;;;;;;297.42;159.87;;;;;;;3.38;71.84;94437.27;1693376;82;21976;-52
2021/12/30 07:28:36;;;;;;;306.63;166.22;;;;;;;3.39;71.94;94441.52;1688515;83;21168;-51
2021/12/30 07:31:04;;;;;;;275.85;148.13;;;;;;;3.41;72.30;94447.31;1649756;84;21036;-51
2021/12/30 07:33:38;;;;;;;258.45;135.55;;;;;;;3.44;72.42;94450.57;1692606;82;21046;-50
2021/12/30 07:36:07;;;;;;;;;;;;;;;3.45;72.54;94448.03;1702782;82;21035;-53
2021/12/30 07:38:35;;;;;;;335.27;190.12;;;;;;;3.48;72.72;94463.52;1691130;82;20515;-51
2021/12/30 07:41:02;;;;;;;419.45;238.55;;;;;;;3.43;72.93;94466.09;1689199;82;21141;-50
2021/12/30 07:43:29;;;;;;;475.80;290.25;;;;;;;3.49;72.79;94466.59;1676492;82;22195;-51
2021/12/30 07:45:55;;;;;;;493.93;296.80;;;;;;;3.54;72.57;94470.21;1682063;82;21069;-54
2021/12/30 07:48:24;;;;;;;457.25;277.20;;;;;;;3.69;72.47;94470.81;1702533;82;21058;-53
2021/12/30 07:50:51;;;;;;;387.23;225.43;;;;;;;3.86;71.85;94473.88;1703137;82;21127;-51
2021/12/30 07:53:21;;;;;;;298.35;165.35;;;;;;;3.99;71.53;94475.61;1682550;82;20998;-55
2021/12/30 07:55:49;;;;;;;284.27;155.05;;;;;;;4.00;71.43;94483.95;1623748;85;21078;-51
2021/12/30 07:58:16;;;;;;;274.05;155.03;;;;;;;3.89;71.79;94487.41;1644411;85;21046;-50
2021/12/30 08:00:45;;;;;;;277.40;156.85;;;;;;;3.89;71.97;94492.84;1658113;83;21083;-52
2021/12/30 08:03:12;;;;;;;290.02;163.62;;;;;;;3.93;72.23;94494.95;1667523;83;21176;-52
2021/12/30 08:05:41;;;;;;;355.15;185.82;;;;;;;3.96;72.17;94485.97;1637802;85;21090;-52
2021/12/30 08:08:09;;;;;;;347.52;191.07;;;;;;;3.91;72.05;94487.01;1644111;85;21002;-50
2021/12/30 08:10:36;;;;;;;371.48;205.00;;;;;;;3.84;72.20;94494.67;1642365;84;21198;-53
2021/12/30 08:13:07;;;;;;;369.57;210.08;;;;;;;3.84;72.33;94490.59;1633541;85;21487;-52
2021/12/30 08:15:34;;;;;;;374.37;208.25;;;;;;;3.89;72.53;94492.84;1641454;84;21200;-52
2021/12/30 08:18:02;;;;;;;338.55;196.57;;;;;;;4.04;72.39;94495.55;1608877;86;21525;-51
2021/12/30 08:20:29;;;;;;;320.63;183.20;;;;;;;4.17;72.01;94501.97;1625752;85;21054;-52
2021/12/30 08:23:02;;;;;;;301.42;171.70;;;;;;;4.27;71.64;94505.11;1665297;83;21071;-51
2021/12/30 08:25:28;;;;;;;330.18;178.93;;;;;;;4.25;71.25;94508.84;1654138;84;21536;-52
2021/12/30 08:27:58;;;;;;;332.50;188.42;;;;;;;4.14;71.24;94497.94;1701837;82;21134;-52
2021/12/30 08:30:25;;;;;;;344.75;201.95;;;;;;;4.10;71.27;94508.89;1694941;82;21040;-48
2021/12/30 08:32:55;;;;;;;344.77;207.95;;;;;;;4.10;71.73;94519.00;1702258;82;21318;-52
2021/12/30 08:35:24;;;;;;;360.23;205.72;;;;;;;4.15;71.37;94522.03;1703591;82;20950;-53
2021/12/30 08:37:54;;;;;;;453.88;262.35;;;;;;;4.19;71.01;94524.68;1684540;83;21556;-52
2021/12/30 08:40:23;;;;;;;383.52;222.65;;;;;;;4.19;71.02;94522.74;1657977;84;21845;-52
2021/12/30 08:42:53;;;;;;;414.43;244.72;;;;;;;4.25;70.85;94525.78;1638915;85;21999;-54
2021/12/30 08:45:20;;;;;;;344.00;196.05;;;;;;;4.22;71.10;94521.16;1645642;84;21262;-52
2021/12/30 08:47:49;;;;;;;321.23;187.65;;;;;;;4.35;71.00;94528.34;1668861;83;21254;-49
2021/12/30 08:50:17;;;;;;;278.35;162.35;;;;;;;4.60;71.35;94528.70;1640146;84;21083;-52
2021/12/30 08:52:46;;;;;;;263.37;148.47;;;;;;;4.87;71.21;94533.52;1699447;82;21159;-49
2021/12/30 08:55:14;;;;;;;265.37;154.60;;;;;;;5.17;70.48;94523.80;1699680;82;21435;-50
2021/12/30 08:57:42;;;;;;;254.45;142.53;;;;;;;5.42;70.21;94531.70;1698352;82;21018;-52
2021/12/30 09:00:24;;;;;;;200.62;117.82;;;;;;;5.75;69.66;94539.44;1700611;82;21093;-52
2021/12/30 09:02:53;;;;;;;172.78;102.72;;;;;;;6.07;68.98;94536.82;1702264;82;20959;-56
2021/12/30 09:05:21;;;;;;;208.02;123.13;;;;;;;6.38;68.16;94535.35;1681685;82;21170;-51
2021/12/30 09:07:51;;;;;;;225.93;115.92;;;;;;;6.56;67.55;94540.56;1709780;82;20982;-51
2021/12/30 09:10:20;;;;;;;247.20;143.57;;;;;;;6.70;66.58;94544.95;1701249;82;21070;-53
2021/12/30 09:12:50;;;;;;;218.52;135.15;;;;;;;6.77;66.15;94535.98;1706819;82;21507;-53
2021/12/30 09:15:23;;;;;;;210.65;127.75;;;;;;;6.92;66.04;94539.13;1706091;82;21134;-52
2021/12/30 09:17:55;;;;;;;217.05;127.97;;;;;;;7.19;65.50;94549.95;1671042;83;21157;-50
2021/12/30 09:20:23;;;;;;;256.00;143.78;;;;;;;7.41;64.53;94546.23;1689343;82;21157;-50
2021/12/30 09:22:52;;;;;;;271.73;149.30;;;;;;;7.48;63.83;94543.91;1703546;82;21548;-52
2021/12/30 09:25:22;;;;;;;330.73;186.03;;;;;;;7.48;63.37;94540.56;1685600;82;21587;-52
2021/12/30 09:27:48;;;;;;;325.70;203.92;;;;;;;7.37;63.24;94531.11;1701291;81;21047;-50
2021/12/30 09:30:16;;;;;;;281.77;175.75;;;;;;;7.18;63.37;94525.91;1680722;82;21199;-51
2021/12/30 09:32:46;;;;;;;282.07;172.70;;;;;;;7.02;63.43;94532.61;1689536;82;21134;-50
2021/12/30 09:35:14;;;;;;;253.52;157.00;;;;;;;6.86;63.53;94525.20;1689464;82;21036;-52
2021/12/30 09:37:41;;;;;;;330.10;208.00;;;;;;;6.97;63.67;94529.03;1688018;82;21019;-56
2021/12/30 09:40:13;;;;;;;318.48;202.82;;;;;;;7.27;63.14;94522.56;1673073;83;21510;-56
2021/12/30 09:42:50;;;;;;;334.70;212.12;;;;;;;7.62;62.19;94521.02;1698517;82;21112;-52
2021/12/30 09:45:17;;;;;;;327.62;208.00;;;;;;;7.83;61.77;94515.53;1682127;82;20930;-54
2021/12/30 09:47:53;;;;;;;320.25;204.15;;;;;;;7.94;61.60;94514.63;1693396;81;21519;-52
2021/12/30 09:50:27;;;;;;;333.27;211.62;;;;;;;8.13;61.49;94504.09;1689209;82;21002;-51
2021/12/30 09:52:55;;;;;;;312.72;199.55;;;;;;;8.41;61.02;94501.28;1685712;82;21016;-54
2021/12/30 09:55:25;;;;;;;289.60;186.62;;;;;;;8.66;60.52;94501.88;1691460;82;21075;-52
2021/12/30 09:57:55;;;;;;;276.77;173.22;;;;;;;8.95;59.63;94492.28;1687873;82;21383;-51
2021/12/30 10:00:23;;;;;;;269.52;167.60;;;;;;;9.14;58.65;94484.38;1671637;83;21576;-54
2021/12/30 10:02:51;;;;;;;237.45;152.87;;;;;;;9.18;58.22;94478.16;1672269;81;21068;-53
2021/12/30 10:05:24;;;;;;;225.25;142.68;;;;;;;9.22;57.93;94478.20;1694321;82;21026;-53
2021/12/30 10:08:11;;;;;;;198.60;129.90;;;;;;;9.33;57.90;94472.34;1710194;82;21148;-51
2021/12/30 10:10:39;;;;;;;187.57;121.13;;;;;;;9.55;57.43;94470.38;1693964;82;21089;-52
2021/12/30 10:13:29;;;;;;;167.05;107.17;;;;;;;9.85;57.02;94460.05;1689199;82;21945;-55
2021/12/30 10:16:06;;;;;;;161.25;105.95;;;;;;;10.36;56.27;94459.89;1688999;82;21091;-54
2021/12/30 10:18:52;;;;;;;154.63;100.72;;;;;;;10.85;54.87;94462.20;1696384;81;21075;-52
2021/12/30 10:21:26;;;;;;;151.12;99.52;;;;;;;11.16;53.93;94454.59;1680621;82;21144;-55
2021/12/30 10:23:56;;;;;;;145.97;97.78;;;;;;;11.27;53.36;94452.16;1674622;81;21034;-53
2021/12/30 10:26:23;;;;;;;153.20;95.90;;;;;;;11.25;53.03;94454.61;1693028;82;21548;-52
2021/12/30 10:28:59;;;;;;;153.60;98.27;;;;;;;11.26;52.48;94450.63;1694613;82;21103;-59
2021/12/30 10:31:30;;;;;;;171.98;105.97;;;;;;;11.24;52.09;94447.57;1694684;82;21034;-52
2021/12/30 10:34:01;;;;;;;227.45;146.62;;;;;;;11.17;52.08;94453.36;1682457;83;21150;-57
2021/12/30 10:36:44;;;;;;;218.53;140.73;;;;;;;11.07;51.90;94451.06;1700088;82;21030;-54
2021/12/30 10:39:19;;;;;;;202.35;131.12;;;;;;;11.17;52.03;94453.98;1691420;83;21377;-55
2021/12/30 10:41:48;;;;;;;184.43;121.10;;;;;;;11.40;51.42;94447.27;1691308;82;21050;-50
2021/12/30 10:44:16;;;;;;;177.70;114.70;;;;;;;11.49;51.12;94441.00;1694761;82;21219;-49
2021/12/30 10:46:43;;;;;;;153.65;98.92;;;;;;;11.59;50.94;94448.83;1695783;81;21090;-54
2021/12/30 10:49:27;;;;;;;149.80;100.42;;;;;;;11.80;50.70;94452.02;1690386;81;21006;-53
2021/12/30 10:51:57;;;;;;;126.92;81.30;;;;;;;11.97;50.44;94442.19;1692537;82;21038;-54
2021/12/30 10:54:28;;;;;;;111.17;75.12;;;;;;;12.20;49.91;94438.74;1676863;83;21081;-52
2021/12/30 10:57:02;;;;;;;110.63;72.65;;;;;;;12.34;49.34;94442.83;1630018;85;21086;-52
2021/12/30 10:59:43;;;;;;;128.55;86.42;;;;;;;12.51;49.36;94442.01;1660868;84;21129;-53
2021/12/30 11:02:21;;;;;;;115.12;76.55;;;;;;;12.88;48.64;94439.96;1664796;83;21597;-51
2021/12/30 11:05:04;;;;;;;114.75;74.87;;;;;;;13.07;48.09;94438.64;1666900;83;21043;-50
2021/12/30 11:07:44;;;;;;;110.75;71.50;;;;;;;13.07;47.91;94451.08;1648653;84;21098;-50
2021/12/30 11:10:14;;;;;;;101.70;67.08;;;;;;;13.04;47.64;94445.75;1669595;84;21050;-52
2021/12/30 11:12:45;;;;;;;122.40;84.85;;;;;;;13.06;47.75;94451.56;1668529;83;21757;-53
2021/12/30 11:15:25;;;;;;;112.70;74.90;;;;;;;13.22;47.61;94451.13;1663906;84;21086;-50
2021/12/30 11:18:16;;;;;;;99.33;66.83;;;;;;;13.49;47.23;94450.30;1645512;83;21211;-55
2021/12/30 11:20:46;;;;;;;96.37;62.60;;;;;;;13.81;46.32;94450.06;1654230;83;21294;-55